Main page
METAR-TAF:

METAR-TAF

Airports :

Nueva Hesperides International Airport

Salto, Uruguay

latitude: 31-23S, longitude: 057-57W, elevation: 34 m

Current weather observation

The report was made 44 minutes ago, at 17:00 UTC
Wind 6 kt from the Southeast
Temperature 27°C
Humidity 48%
Pressure 1015 hPa
Visibility 10 km or more
Broken clouds at a height of 2700 ft

METAR: SUSO 211700Z 14006KT 9999 BKN027 27/15 Q1015

Time: 14:44 (17:44 UTC)

Forecast

The report was made 14 minutes ago, at 17:30 UTC
Forecast valid from 21 at 18 UTC to 22 at 18 UTC
Wind 5 kt from the North
Visibility 10 km or more
Scattered clouds at a height of 2500 ft

TAF: SUSO 211730Z 2118/2218 36005KT 9999 SCT025 TX28/2218Z TN12/2210Z

Weather observations and forecasts of more than 4000 airports (METAR and TAF reports).

The available stations are represented by yellow and red dots on the map.

Hover mouse over dot to see the name of the station.

Then click to see weather observations and forecasts.

To change the map : click on the green buttons with a black cross to zoom in, on the green button with a dash to zoom out, or on the green arrows for adjacent maps.


METAR-TAF: